sensor_id;sensor_type;location;lat;lon;timestamp;P1;durP1;ratioP1;P2;durP2;ratioP2
8636;SDS011;4356;49.068;8.658;2022-09-09T00:03:59;7.03;;;1.87;;
8636;SDS011;4356;49.068;8.658;2022-09-09T00:06:35;1.30;;;1.30;;
8636;SDS011;4356;49.068;8.658;2022-09-09T00:09:16;2.03;;;1.60;;
8636;SDS011;4356;49.068;8.658;2022-09-09T00:11:44;1.60;;;1.50;;
8636;SDS011;4356;49.068;8.658;2022-09-09T00:14:25;2.20;;;1.37;;
8636;SDS011;4356;49.068;8.658;2022-09-09T00:22:59;2.70;;;2.00;;
8636;SDS011;4356;49.068;8.658;2022-09-09T00:25:36;1.90;;;1.80;;
8636;SDS011;4356;49.068;8.658;2022-09-09T00:28:17;1.80;;;1.70;;
8636;SDS011;4356;49.068;8.658;2022-09-09T00:30:45;1.93;;;1.73;;
8636;SDS011;4356;49.068;8.658;2022-09-09T00:33:16;3.20;;;1.70;;
8636;SDS011;4356;49.068;8.658;2022-09-09T00:35:50;4.67;;;1.97;;
8636;SDS011;4356;49.068;8.658;2022-09-09T00:40:58;4.03;;;1.93;;
8636;SDS011;4356;49.068;8.658;2022-09-09T00:43:31;8.27;;;2.47;;
8636;SDS011;4356;49.068;8.658;2022-09-09T00:49:04;3.00;;;1.97;;
8636;SDS011;4356;49.068;8.658;2022-09-09T00:51:58;3.47;;;1.80;;
8636;SDS011;4356;49.068;8.658;2022-09-09T00:57:40;2.13;;;1.93;;
8636;SDS011;4356;49.068;8.658;2022-09-09T01:10:53;2.17;;;1.73;;
8636;SDS011;4356;49.068;8.658;2022-09-09T01:13:27;2.30;;;2.10;;
8636;SDS011;4356;49.068;8.658;2022-09-09T01:15:59;1.80;;;1.70;;
8636;SDS011;4356;49.068;8.658;2022-09-09T01:27:17;1.97;;;1.63;;
8636;SDS011;4356;49.068;8.658;2022-09-09T01:29:45;4.30;;;1.90;;
8636;SDS011;4356;49.068;8.658;2022-09-09T01:35:10;1.50;;;1.40;;
8636;SDS011;4356;49.068;8.658;2022-09-09T01:37:40;3.67;;;1.70;;
8636;SDS011;4356;49.068;8.658;2022-09-09T01:40:06;4.00;;;1.30;;
8636;SDS011;4356;49.068;8.658;2022-09-09T01:42:32;1.97;;;0.90;;
8636;SDS011;4356;49.068;8.658;2022-09-09T01:44:57;2.23;;;1.23;;
8636;SDS011;4356;49.068;8.658;2022-09-09T01:47:23;0.90;;;0.90;;
8636;SDS011;4356;49.068;8.658;2022-09-09T01:49:49;0.97;;;0.80;;
8636;SDS011;4356;49.068;8.658;2022-09-09T01:52:15;0.50;;;0.50;;
8636;SDS011;4356;49.068;8.658;2022-09-09T01:54:40;1.17;;;0.67;;
8636;SDS011;4356;49.068;8.658;2022-09-09T02:00:00;0.73;;;0.73;;
8636;SDS011;4356;49.068;8.658;2022-09-09T02:02:32;0.93;;;0.80;;
8636;SDS011;4356;49.068;8.658;2022-09-09T02:05:17;3.30;;;0.97;;
8636;SDS011;4356;49.068;8.658;2022-09-09T02:08:08;0.70;;;0.70;;
8636;SDS011;4356;49.068;8.658;2022-09-09T02:13:13;1.20;;;1.10;;
8636;SDS011;4356;49.068;8.658;2022-09-09T02:18:25;1.00;;;0.70;;
8636;SDS011;4356;49.068;8.658;2022-09-09T02:20:56;1.90;;;0.70;;
8636;SDS011;4356;49.068;8.658;2022-09-09T02:23:23;0.97;;;0.77;;
8636;SDS011;4356;49.068;8.658;2022-09-09T02:25:49;1.30;;;0.60;;
8636;SDS011;4356;49.068;8.658;2022-09-09T02:28:18;0.60;;;0.60;;
8636;SDS011;4356;49.068;8.658;2022-09-09T02:30:46;2.23;;;0.73;;
8636;SDS011;4356;49.068;8.658;2022-09-09T02:33:18;1.67;;;0.43;;
8636;SDS011;4356;49.068;8.658;2022-09-09T02:35:45;3.40;;;0.97;;
8636;SDS011;4356;49.068;8.658;2022-09-09T02:38:12;0.80;;;0.77;;
8636;SDS011;4356;49.068;8.658;2022-09-09T02:40:40;0.47;;;0.47;;
8636;SDS011;4356;49.068;8.658;2022-09-09T02:43:05;0.50;;;0.50;;
8636;SDS011;4356;49.068;8.658;2022-09-09T02:45:33;1.00;;;0.70;;
8636;SDS011;4356;49.068;8.658;2022-09-09T02:54:10;1.20;;;0.67;;
8636;SDS011;4356;49.068;8.658;2022-09-09T02:56:43;1.17;;;0.60;;
8636;SDS011;4356;49.068;8.658;2022-09-09T02:59:15;0.90;;;0.70;;
8636;SDS011;4356;49.068;8.658;2022-09-09T03:01:43;0.33;;;0.33;;
8636;SDS011;4356;49.068;8.658;2022-09-09T03:04:09;0.93;;;0.70;;
8636;SDS011;4356;49.068;8.658;2022-09-09T03:06:35;1.03;;;0.63;;
8636;SDS011;4356;49.068;8.658;2022-09-09T03:09:00;0.50;;;0.50;;
8636;SDS011;4356;49.068;8.658;2022-09-09T03:11:27;0.80;;;0.80;;
8636;SDS011;4356;49.068;8.658;2022-09-09T03:13:54;7.03;;;1.17;;
8636;SDS011;4356;49.068;8.658;2022-09-09T03:16:21;0.50;;;0.50;;
8636;SDS011;4356;49.068;8.658;2022-09-09T03:18:47;0.63;;;0.63;;
8636;SDS011;4356;49.068;8.658;2022-09-09T03:21:13;0.93;;;0.73;;
8636;SDS011;4356;49.068;8.658;2022-09-09T03:23:39;0.83;;;0.60;;
8636;SDS011;4356;49.068;8.658;2022-09-09T03:26:05;0.97;;;0.67;;
8636;SDS011;4356;49.068;8.658;2022-09-09T03:28:31;3.93;;;0.70;;
8636;SDS011;4356;49.068;8.658;2022-09-09T03:31:00;1.37;;;0.90;;
8636;SDS011;4356;49.068;8.658;2022-09-09T03:33:26;0.83;;;0.80;;
8636;SDS011;4356;49.068;8.658;2022-09-09T03:35:52;0.87;;;0.80;;
8636;SDS011;4356;49.068;8.658;2022-09-09T03:38:18;1.70;;;0.90;;
8636;SDS011;4356;49.068;8.658;2022-09-09T03:40:50;0.50;;;0.50;;
8636;SDS011;4356;49.068;8.658;2022-09-09T03:43:20;0.50;;;0.50;;
8636;SDS011;4356;49.068;8.658;2022-09-09T03:45:46;0.80;;;0.70;;
8636;SDS011;4356;49.068;8.658;2022-09-09T03:48:13;0.60;;;0.60;;
8636;SDS011;4356;49.068;8.658;2022-09-09T03:50:43;1.43;;;0.87;;
8636;SDS011;4356;49.068;8.658;2022-09-09T03:53:13;0.73;;;0.60;;
8636;SDS011;4356;49.068;8.658;2022-09-09T03:55:43;1.57;;;0.73;;
8636;SDS011;4356;49.068;8.658;2022-09-09T03:58:10;1.40;;;0.70;;
8636;SDS011;4356;49.068;8.658;2022-09-09T04:00:37;0.60;;;0.60;;
8636;SDS011;4356;49.068;8.658;2022-09-09T04:03:08;2.50;;;0.80;;
8636;SDS011;4356;49.068;8.658;2022-09-09T04:05:34;1.07;;;0.70;;
8636;SDS011;4356;49.068;8.658;2022-09-09T04:08:00;0.97;;;0.87;;
8636;SDS011;4356;49.068;8.658;2022-09-09T04:10:26;1.47;;;1.20;;
8636;SDS011;4356;49.068;8.658;2022-09-09T04:12:51;1.47;;;1.13;;
8636;SDS011;4356;49.068;8.658;2022-09-09T04:15:17;0.60;;;0.60;;
8636;SDS011;4356;49.068;8.658;2022-09-09T04:17:43;0.90;;;0.80;;
8636;SDS011;4356;49.068;8.658;2022-09-09T04:20:09;1.13;;;0.70;;
8636;SDS011;4356;49.068;8.658;2022-09-09T04:22:37;1.33;;;0.90;;
8636;SDS011;4356;49.068;8.658;2022-09-09T04:25:04;0.83;;;0.80;;
8636;SDS011;4356;49.068;8.658;2022-09-09T04:27:31;0.67;;;0.60;;
8636;SDS011;4356;49.068;8.658;2022-09-09T04:29:57;0.83;;;0.80;;
8636;SDS011;4356;49.068;8.658;2022-09-09T04:32:22;1.03;;;0.90;;
8636;SDS011;4356;49.068;8.658;2022-09-09T04:34:54;1.07;;;0.50;;
8636;SDS011;4356;49.068;8.658;2022-09-09T04:37:20;0.67;;;0.67;;
8636;SDS011;4356;49.068;8.658;2022-09-09T04:39:45;2.33;;;0.70;;
8636;SDS011;4356;49.068;8.658;2022-09-09T04:42:11;0.40;;;0.40;;
8636;SDS011;4356;49.068;8.658;2022-09-09T04:44:36;0.97;;;0.73;;
8636;SDS011;4356;49.068;8.658;2022-09-09T04:47:02;0.90;;;0.70;;
8636;SDS011;4356;49.068;8.658;2022-09-09T04:49:28;0.50;;;0.50;;
8636;SDS011;4356;49.068;8.658;2022-09-09T04:51:56;0.37;;;0.37;;
8636;SDS011;4356;49.068;8.658;2022-09-09T04:54:22;1.13;;;0.90;;
8636;SDS011;4356;49.068;8.658;2022-09-09T04:56:49;0.77;;;0.53;;
8636;SDS011;4356;49.068;8.658;2022-09-09T04:59:15;1.80;;;0.57;;
8636;SDS011;4356;49.068;8.658;2022-09-09T05:01:41;2.20;;;1.13;;
8636;SDS011;4356;49.068;8.658;2022-09-09T05:04:07;3.30;;;0.80;;
8636;SDS011;4356;49.068;8.658;2022-09-09T05:06:34;0.70;;;0.70;;
8636;SDS011;4356;49.068;8.658;2022-09-09T05:09:01;1.67;;;0.40;;
8636;SDS011;4356;49.068;8.658;2022-09-09T05:11:28;1.03;;;0.73;;
8636;SDS011;4356;49.068;8.658;2022-09-09T05:13:55;1.17;;;0.70;;
8636;SDS011;4356;49.068;8.658;2022-09-09T05:16:22;1.50;;;0.60;;
8636;SDS011;4356;49.068;8.658;2022-09-09T05:18:48;0.97;;;0.60;;
8636;SDS011;4356;49.068;8.658;2022-09-09T05:21:16;0.60;;;0.57;;
8636;SDS011;4356;49.068;8.658;2022-09-09T05:23:44;2.10;;;0.70;;
8636;SDS011;4356;49.068;8.658;2022-09-09T05:26:15;1.50;;;0.60;;
8636;SDS011;4356;49.068;8.658;2022-09-09T05:28:42;2.87;;;0.87;;
8636;SDS011;4356;49.068;8.658;2022-09-09T05:31:09;2.30;;;0.60;;
8636;SDS011;4356;49.068;8.658;2022-09-09T05:33:39;0.80;;;0.80;;
8636;SDS011;4356;49.068;8.658;2022-09-09T05:36:06;0.30;;;0.30;;
8636;SDS011;4356;49.068;8.658;2022-09-09T05:38:33;1.60;;;0.87;;
8636;SDS011;4356;49.068;8.658;2022-09-09T05:41:00;2.53;;;0.50;;
8636;SDS011;4356;49.068;8.658;2022-09-09T05:43:28;0.67;;;0.40;;
8636;SDS011;4356;49.068;8.658;2022-09-09T05:48:30;2.53;;;1.07;;
8636;SDS011;4356;49.068;8.658;2022-09-09T05:50:57;1.10;;;0.77;;
8636;SDS011;4356;49.068;8.658;2022-09-09T05:53:24;1.37;;;0.73;;
8636;SDS011;4356;49.068;8.658;2022-09-09T05:55:58;1.23;;;0.90;;
8636;SDS011;4356;49.068;8.658;2022-09-09T05:58:25;0.90;;;0.90;;
8636;SDS011;4356;49.068;8.658;2022-09-09T06:00:50;0.70;;;0.70;;
8636;SDS011;4356;49.068;8.658;2022-09-09T06:03:16;1.27;;;0.77;;
8636;SDS011;4356;49.068;8.658;2022-09-09T06:05:42;3.00;;;1.30;;
8636;SDS011;4356;49.068;8.658;2022-09-09T06:08:07;1.43;;;0.97;;
8636;SDS011;4356;49.068;8.658;2022-09-09T06:10:33;1.03;;;0.77;;
8636;SDS011;4356;49.068;8.658;2022-09-09T06:12:59;2.93;;;0.80;;
8636;SDS011;4356;49.068;8.658;2022-09-09T06:15:25;1.50;;;0.80;;
8636;SDS011;4356;49.068;8.658;2022-09-09T06:17:55;2.90;;;0.83;;
8636;SDS011;4356;49.068;8.658;2022-09-09T06:20:21;2.23;;;0.80;;
8636;SDS011;4356;49.068;8.658;2022-09-09T06:22:47;1.27;;;0.80;;
8636;SDS011;4356;49.068;8.658;2022-09-09T06:25:13;0.73;;;0.73;;
8636;SDS011;4356;49.068;8.658;2022-09-09T06:27:39;0.73;;;0.60;;
8636;SDS011;4356;49.068;8.658;2022-09-09T06:30:06;1.43;;;1.10;;
8636;SDS011;4356;49.068;8.658;2022-09-09T06:32:32;1.53;;;0.93;;
8636;SDS011;4356;49.068;8.658;2022-09-09T06:34:59;1.70;;;0.90;;
8636;SDS011;4356;49.068;8.658;2022-09-09T06:37:26;1.33;;;1.10;;
8636;SDS011;4356;49.068;8.658;2022-09-09T06:39:52;3.07;;;1.03;;
8636;SDS011;4356;49.068;8.658;2022-09-09T06:42:19;0.77;;;0.77;;
8636;SDS011;4356;49.068;8.658;2022-09-09T06:44:45;0.83;;;0.80;;
8636;SDS011;4356;49.068;8.658;2022-09-09T06:47:13;2.27;;;0.83;;
8636;SDS011;4356;49.068;8.658;2022-09-09T06:49:39;2.63;;;1.17;;
8636;SDS011;4356;49.068;8.658;2022-09-09T06:52:04;0.83;;;0.83;;
8636;SDS011;4356;49.068;8.658;2022-09-09T06:54:30;1.70;;;0.80;;
8636;SDS011;4356;49.068;8.658;2022-09-09T06:56:56;1.30;;;1.00;;
8636;SDS011;4356;49.068;8.658;2022-09-09T06:59:21;0.87;;;0.87;;
8636;SDS011;4356;49.068;8.658;2022-09-09T07:01:47;1.63;;;1.10;;
8636;SDS011;4356;49.068;8.658;2022-09-09T07:04:13;6.43;;;1.63;;
8636;SDS011;4356;49.068;8.658;2022-09-09T07:06:43;2.03;;;0.97;;
8636;SDS011;4356;49.068;8.658;2022-09-09T07:09:11;2.37;;;0.83;;
8636;SDS011;4356;49.068;8.658;2022-09-09T07:11:39;3.97;;;1.00;;
8636;SDS011;4356;49.068;8.658;2022-09-09T07:14:16;1.33;;;1.07;;
8636;SDS011;4356;49.068;8.658;2022-09-09T07:16:42;4.20;;;1.40;;
8636;SDS011;4356;49.068;8.658;2022-09-09T07:19:09;1.43;;;0.90;;
8636;SDS011;4356;49.068;8.658;2022-09-09T07:21:36;5.63;;;1.17;;
8636;SDS011;4356;49.068;8.658;2022-09-09T07:24:04;1.60;;;1.30;;
8636;SDS011;4356;49.068;8.658;2022-09-09T07:26:33;1.60;;;1.10;;
8636;SDS011;4356;49.068;8.658;2022-09-09T07:28:59;1.93;;;1.10;;
8636;SDS011;4356;49.068;8.658;2022-09-09T07:31:28;2.77;;;1.10;;
8636;SDS011;4356;49.068;8.658;2022-09-09T07:33:56;1.60;;;0.90;;
8636;SDS011;4356;49.068;8.658;2022-09-09T07:38:58;3.67;;;1.20;;
8636;SDS011;4356;49.068;8.658;2022-09-09T07:41:30;1.50;;;1.17;;
8636;SDS011;4356;49.068;8.658;2022-09-09T07:43:59;2.20;;;1.20;;
8636;SDS011;4356;49.068;8.658;2022-09-09T07:46:28;1.50;;;0.80;;
8636;SDS011;4356;49.068;8.658;2022-09-09T07:48:57;2.50;;;1.20;;
8636;SDS011;4356;49.068;8.658;2022-09-09T07:51:24;1.33;;;1.03;;
8636;SDS011;4356;49.068;8.658;2022-09-09T07:53:55;2.23;;;1.20;;
8636;SDS011;4356;49.068;8.658;2022-09-09T07:56:27;4.27;;;1.07;;
8636;SDS011;4356;49.068;8.658;2022-09-09T07:58:54;2.23;;;1.23;;
8636;SDS011;4356;49.068;8.658;2022-09-09T08:01:25;2.47;;;1.00;;
8636;SDS011;4356;49.068;8.658;2022-09-09T08:03:54;1.17;;;0.63;;
8636;SDS011;4356;49.068;8.658;2022-09-09T08:06:25;2.20;;;1.10;;
8636;SDS011;4356;49.068;8.658;2022-09-09T08:08:52;1.70;;;1.03;;
8636;SDS011;4356;49.068;8.658;2022-09-09T08:11:20;6.90;;;0.90;;
8636;SDS011;4356;49.068;8.658;2022-09-09T08:13:49;2.80;;;1.33;;
8636;SDS011;4356;49.068;8.658;2022-09-09T08:16:16;2.77;;;1.03;;
8636;SDS011;4356;49.068;8.658;2022-09-09T08:18:44;2.03;;;0.97;;
8636;SDS011;4356;49.068;8.658;2022-09-09T08:21:17;2.37;;;1.00;;
8636;SDS011;4356;49.068;8.658;2022-09-09T08:23:45;2.33;;;1.13;;
8636;SDS011;4356;49.068;8.658;2022-09-09T08:26:16;1.97;;;1.00;;
8636;SDS011;4356;49.068;8.658;2022-09-09T08:28:48;8.63;;;1.70;;
8636;SDS011;4356;49.068;8.658;2022-09-09T08:31:17;3.47;;;1.10;;
8636;SDS011;4356;49.068;8.658;2022-09-09T08:33:43;1.50;;;0.73;;
8636;SDS011;4356;49.068;8.658;2022-09-09T08:36:22;0.97;;;0.77;;
8636;SDS011;4356;49.068;8.658;2022-09-09T08:38:51;2.20;;;0.80;;
8636;SDS011;4356;49.068;8.658;2022-09-09T08:43:50;3.10;;;0.97;;
8636;SDS011;4356;49.068;8.658;2022-09-09T08:46:27;0.90;;;0.87;;
8636;SDS011;4356;49.068;8.658;2022-09-09T08:49:06;1.50;;;1.10;;
8636;SDS011;4356;49.068;8.658;2022-09-09T08:51:37;2.43;;;0.90;;
8636;SDS011;4356;49.068;8.658;2022-09-09T08:54:03;0.80;;;0.80;;
8636;SDS011;4356;49.068;8.658;2022-09-09T08:56:31;1.30;;;0.93;;
8636;SDS011;4356;49.068;8.658;2022-09-09T08:58:59;2.37;;;0.87;;
8636;SDS011;4356;49.068;8.658;2022-09-09T09:01:32;1.90;;;1.10;;
8636;SDS011;4356;49.068;8.658;2022-09-09T09:11:39;1.73;;;0.80;;
8636;SDS011;4356;49.068;8.658;2022-09-09T09:19:34;2.73;;;1.30;;
8636;SDS011;4356;49.068;8.658;2022-09-09T09:22:26;0.87;;;0.87;;
8636;SDS011;4356;49.068;8.658;2022-09-09T09:30:10;2.60;;;1.07;;
8636;SDS011;4356;49.068;8.658;2022-09-09T09:32:40;1.87;;;1.20;;
8636;SDS011;4356;49.068;8.658;2022-09-09T09:35:16;1.77;;;1.03;;
8636;SDS011;4356;49.068;8.658;2022-09-09T09:37:42;2.57;;;1.00;;
8636;SDS011;4356;49.068;8.658;2022-09-09T09:40:12;2.73;;;1.10;;
8636;SDS011;4356;49.068;8.658;2022-09-09T09:42:53;1.00;;;1.00;;
8636;SDS011;4356;49.068;8.658;2022-09-09T09:47:57;1.07;;;0.80;;
8636;SDS011;4356;49.068;8.658;2022-09-09T09:50:28;1.70;;;0.90;;
8636;SDS011;4356;49.068;8.658;2022-09-09T09:52:55;1.23;;;0.90;;
8636;SDS011;4356;49.068;8.658;2022-09-09T09:55:22;2.67;;;1.07;;
8636;SDS011;4356;49.068;8.658;2022-09-09T09:57:52;1.23;;;0.90;;
8636;SDS011;4356;49.068;8.658;2022-09-09T10:00:22;1.67;;;1.00;;
8636;SDS011;4356;49.068;8.658;2022-09-09T10:02:49;1.10;;;0.60;;
8636;SDS011;4356;49.068;8.658;2022-09-09T10:08:04;0.70;;;0.70;;
8636;SDS011;4356;49.068;8.658;2022-09-09T10:13:36;1.17;;;0.57;;
8636;SDS011;4356;49.068;8.658;2022-09-09T10:19:13;2.33;;;0.90;;
8636;SDS011;4356;49.068;8.658;2022-09-09T10:22:02;1.23;;;1.00;;
8636;SDS011;4356;49.068;8.658;2022-09-09T10:34:57;0.40;;;0.40;;
8636;SDS011;4356;49.068;8.658;2022-09-09T10:42:44;2.27;;;0.90;;
8636;SDS011;4356;49.068;8.658;2022-09-09T10:45:28;1.77;;;1.23;;
8636;SDS011;4356;49.068;8.658;2022-09-09T10:55:42;3.10;;;0.97;;
8636;SDS011;4356;49.068;8.658;2022-09-09T10:58:56;1.93;;;1.13;;
8636;SDS011;4356;49.068;8.658;2022-09-09T11:01:30;4.97;;;1.10;;
8636;SDS011;4356;49.068;8.658;2022-09-09T11:04:26;1.93;;;0.83;;
8636;SDS011;4356;49.068;8.658;2022-09-09T11:06:59;1.43;;;1.27;;
8636;SDS011;4356;49.068;8.658;2022-09-09T11:09:31;3.67;;;1.10;;
8636;SDS011;4356;49.068;8.658;2022-09-09T11:12:01;1.67;;;1.07;;
8636;SDS011;4356;49.068;8.658;2022-09-09T11:17:20;1.03;;;0.63;;
8636;SDS011;4356;49.068;8.658;2022-09-09T11:19:49;6.40;;;2.20;;
8636;SDS011;4356;49.068;8.658;2022-09-09T11:27:54;3.53;;;1.10;;
8636;SDS011;4356;49.068;8.658;2022-09-09T11:38:53;2.37;;;0.87;;
8636;SDS011;4356;49.068;8.658;2022-09-09T11:41:37;1.87;;;1.20;;
8636;SDS011;4356;49.068;8.658;2022-09-09T11:44:13;0.90;;;0.77;;
8636;SDS011;4356;49.068;8.658;2022-09-09T11:46:46;1.83;;;0.97;;
8636;SDS011;4356;49.068;8.658;2022-09-09T11:49:27;1.83;;;1.07;;
8636;SDS011;4356;49.068;8.658;2022-09-09T11:51:53;1.17;;;0.70;;
8636;SDS011;4356;49.068;8.658;2022-09-09T11:54:32;2.43;;;1.07;;
8636;SDS011;4356;49.068;8.658;2022-09-09T11:57:23;1.13;;;0.87;;
8636;SDS011;4356;49.068;8.658;2022-09-09T12:00:02;0.80;;;0.73;;
8636;SDS011;4356;49.068;8.658;2022-09-09T12:02:29;1.10;;;1.00;;
8636;SDS011;4356;49.068;8.658;2022-09-09T12:05:08;1.00;;;0.87;;
8636;SDS011;4356;49.068;8.658;2022-09-09T12:13:07;3.43;;;1.03;;
8636;SDS011;4356;49.068;8.658;2022-09-09T12:15:51;1.90;;;1.30;;
8636;SDS011;4356;49.068;8.658;2022-09-09T12:18:25;1.53;;;1.13;;
8636;SDS011;4356;49.068;8.658;2022-09-09T12:23:52;1.90;;;1.17;;
8636;SDS011;4356;49.068;8.658;2022-09-09T12:26:33;0.67;;;0.67;;
8636;SDS011;4356;49.068;8.658;2022-09-09T12:29:18;1.70;;;1.07;;
8636;SDS011;4356;49.068;8.658;2022-09-09T12:32:13;1.07;;;0.80;;
8636;SDS011;4356;49.068;8.658;2022-09-09T12:37:17;1.50;;;0.97;;
8636;SDS011;4356;49.068;8.658;2022-09-09T12:39:55;1.33;;;0.70;;
8636;SDS011;4356;49.068;8.658;2022-09-09T12:42:44;2.83;;;1.00;;
8636;SDS011;4356;49.068;8.658;2022-09-09T12:45:43;2.63;;;0.87;;
8636;SDS011;4356;49.068;8.658;2022-09-09T12:48:07;1.03;;;0.90;;
8636;SDS011;4356;49.068;8.658;2022-09-09T12:50:47;1.40;;;1.23;;
8636;SDS011;4356;49.068;8.658;2022-09-09T12:53:26;1.27;;;0.80;;
8636;SDS011;4356;49.068;8.658;2022-09-09T12:56:04;0.57;;;0.57;;
8636;SDS011;4356;49.068;8.658;2022-09-09T12:58:38;3.10;;;0.73;;
8636;SDS011;4356;49.068;8.658;2022-09-09T13:01:05;1.87;;;0.60;;
8636;SDS011;4356;49.068;8.658;2022-09-09T13:03:41;0.60;;;0.60;;
8636;SDS011;4356;49.068;8.658;2022-09-09T13:06:12;1.27;;;1.17;;
8636;SDS011;4356;49.068;8.658;2022-09-09T13:08:43;2.27;;;1.40;;
8636;SDS011;4356;49.068;8.658;2022-09-09T13:11:10;5.00;;;1.03;;
8636;SDS011;4356;49.068;8.658;2022-09-09T13:13:43;5.10;;;1.07;;
8636;SDS011;4356;49.068;8.658;2022-09-09T13:16:21;0.90;;;0.83;;
8636;SDS011;4356;49.068;8.658;2022-09-09T13:18:50;0.73;;;0.50;;
8636;SDS011;4356;49.068;8.658;2022-09-09T13:21:16;0.73;;;0.60;;
8636;SDS011;4356;49.068;8.658;2022-09-09T13:23:42;0.90;;;0.90;;
8636;SDS011;4356;49.068;8.658;2022-09-09T13:26:25;3.17;;;0.90;;
8636;SDS011;4356;49.068;8.658;2022-09-09T13:28:55;1.77;;;0.70;;
8636;SDS011;4356;49.068;8.658;2022-09-09T13:31:34;4.73;;;0.67;;
8636;SDS011;4356;49.068;8.658;2022-09-09T13:34:25;1.93;;;0.40;;
8636;SDS011;4356;49.068;8.658;2022-09-09T13:36:53;1.30;;;0.90;;
8636;SDS011;4356;49.068;8.658;2022-09-09T13:39:23;0.90;;;0.87;;
8636;SDS011;4356;49.068;8.658;2022-09-09T13:41:49;3.23;;;0.83;;
8636;SDS011;4356;49.068;8.658;2022-09-09T13:44:22;0.87;;;0.83;;
8636;SDS011;4356;49.068;8.658;2022-09-09T13:47:36;1.57;;;1.17;;
8636;SDS011;4356;49.068;8.658;2022-09-09T13:49:40;1.40;;;0.87;;
8636;SDS011;4356;49.068;8.658;2022-09-09T13:52:10;1.40;;;1.00;;
8636;SDS011;4356;49.068;8.658;2022-09-09T13:54:47;1.00;;;0.80;;
8636;SDS011;4356;49.068;8.658;2022-09-09T13:57:18;1.23;;;0.87;;
8636;SDS011;4356;49.068;8.658;2022-09-09T13:59:49;1.53;;;1.00;;
8636;SDS011;4356;49.068;8.658;2022-09-09T14:02:15;0.80;;;0.80;;
8636;SDS011;4356;49.068;8.658;2022-09-09T14:04:42;5.70;;;1.00;;
8636;SDS011;4356;49.068;8.658;2022-09-09T14:07:14;1.27;;;1.07;;
8636;SDS011;4356;49.068;8.658;2022-09-09T14:09:41;1.23;;;1.00;;
8636;SDS011;4356;49.068;8.658;2022-09-09T14:12:11;2.13;;;0.93;;
8636;SDS011;4356;49.068;8.658;2022-09-09T14:14:37;1.10;;;0.90;;
8636;SDS011;4356;49.068;8.658;2022-09-09T14:17:03;0.70;;;0.70;;
8636;SDS011;4356;49.068;8.658;2022-09-09T14:19:30;2.83;;;1.00;;
8636;SDS011;4356;49.068;8.658;2022-09-09T14:21:59;0.83;;;0.83;;
8636;SDS011;4356;49.068;8.658;2022-09-09T14:24:26;1.67;;;1.00;;
8636;SDS011;4356;49.068;8.658;2022-09-09T14:26:53;3.87;;;1.03;;
8636;SDS011;4356;49.068;8.658;2022-09-09T14:29:18;0.80;;;0.80;;
8636;SDS011;4356;49.068;8.658;2022-09-09T14:31:44;1.80;;;0.97;;
8636;SDS011;4356;49.068;8.658;2022-09-09T14:34:09;0.50;;;0.50;;
8636;SDS011;4356;49.068;8.658;2022-09-09T14:36:36;2.03;;;1.33;;
8636;SDS011;4356;49.068;8.658;2022-09-09T14:39:02;1.33;;;1.07;;
8636;SDS011;4356;49.068;8.658;2022-09-09T14:41:29;0.77;;;0.77;;
8636;SDS011;4356;49.068;8.658;2022-09-09T14:43:55;1.60;;;0.70;;
8636;SDS011;4356;49.068;8.658;2022-09-09T14:46:21;3.33;;;1.03;;
8636;SDS011;4356;49.068;8.658;2022-09-09T14:48:47;2.17;;;0.90;;
8636;SDS011;4356;49.068;8.658;2022-09-09T14:51:17;2.77;;;1.43;;
8636;SDS011;4356;49.068;8.658;2022-09-09T14:53:45;1.60;;;1.17;;
8636;SDS011;4356;49.068;8.658;2022-09-09T14:56:13;6.33;;;2.50;;
8636;SDS011;4356;49.068;8.658;2022-09-09T14:58:43;3.33;;;1.40;;
8636;SDS011;4356;49.068;8.658;2022-09-09T15:01:14;6.80;;;1.67;;
8636;SDS011;4356;49.068;8.658;2022-09-09T15:03:42;2.33;;;1.03;;
8636;SDS011;4356;49.068;8.658;2022-09-09T15:06:13;1.13;;;1.00;;
8636;SDS011;4356;49.068;8.658;2022-09-09T15:08:40;2.07;;;0.87;;
8636;SDS011;4356;49.068;8.658;2022-09-09T15:11:07;1.73;;;1.00;;
8636;SDS011;4356;49.068;8.658;2022-09-09T15:13:33;2.83;;;0.87;;
8636;SDS011;4356;49.068;8.658;2022-09-09T15:16:04;2.00;;;1.03;;
8636;SDS011;4356;49.068;8.658;2022-09-09T15:18:31;1.03;;;0.60;;
8636;SDS011;4356;49.068;8.658;2022-09-09T15:20:58;3.13;;;0.97;;
8636;SDS011;4356;49.068;8.658;2022-09-09T15:23:26;1.53;;;1.03;;
8636;SDS011;4356;49.068;8.658;2022-09-09T15:25:55;2.63;;;1.10;;
8636;SDS011;4356;49.068;8.658;2022-09-09T15:28:21;1.10;;;1.10;;
8636;SDS011;4356;49.068;8.658;2022-09-09T15:30:51;1.77;;;1.40;;
8636;SDS011;4356;49.068;8.658;2022-09-09T15:33:18;2.07;;;1.30;;
8636;SDS011;4356;49.068;8.658;2022-09-09T15:35:45;1.53;;;1.43;;
8636;SDS011;4356;49.068;8.658;2022-09-09T15:38:10;1.77;;;1.13;;
8636;SDS011;4356;49.068;8.658;2022-09-09T15:40:38;1.33;;;1.13;;
8636;SDS011;4356;49.068;8.658;2022-09-09T15:43:07;1.20;;;1.10;;
8636;SDS011;4356;49.068;8.658;2022-09-09T15:45:35;4.17;;;1.20;;
8636;SDS011;4356;49.068;8.658;2022-09-09T15:48:01;2.27;;;1.10;;
8636;SDS011;4356;49.068;8.658;2022-09-09T15:50:27;1.83;;;1.20;;
8636;SDS011;4356;49.068;8.658;2022-09-09T15:52:55;3.60;;;0.90;;
8636;SDS011;4356;49.068;8.658;2022-09-09T15:55:21;1.63;;;1.00;;
8636;SDS011;4356;49.068;8.658;2022-09-09T15:57:46;1.47;;;0.63;;
8636;SDS011;4356;49.068;8.658;2022-09-09T16:00:12;1.70;;;0.90;;
8636;SDS011;4356;49.068;8.658;2022-09-09T16:02:39;0.40;;;0.40;;
8636;SDS011;4356;49.068;8.658;2022-09-09T16:05:04;0.90;;;0.87;;
8636;SDS011;4356;49.068;8.658;2022-09-09T16:07:31;3.83;;;0.93;;
8636;SDS011;4356;49.068;8.658;2022-09-09T16:09:56;0.60;;;0.60;;
8636;SDS011;4356;49.068;8.658;2022-09-09T16:12:22;2.20;;;0.93;;
8636;SDS011;4356;49.068;8.658;2022-09-09T16:14:48;3.40;;;0.93;;
8636;SDS011;4356;49.068;8.658;2022-09-09T16:17:13;1.83;;;0.80;;
8636;SDS011;4356;49.068;8.658;2022-09-09T16:19:40;4.27;;;0.97;;
8636;SDS011;4356;49.068;8.658;2022-09-09T16:22:06;0.77;;;0.70;;
8636;SDS011;4356;49.068;8.658;2022-09-09T16:24:32;1.60;;;0.60;;
8636;SDS011;4356;49.068;8.658;2022-09-09T16:26:58;2.83;;;1.10;;
8636;SDS011;4356;49.068;8.658;2022-09-09T16:29:24;2.23;;;0.93;;
8636;SDS011;4356;49.068;8.658;2022-09-09T16:31:52;0.63;;;0.63;;
8636;SDS011;4356;49.068;8.658;2022-09-09T16:34:19;1.13;;;0.57;;
8636;SDS011;4356;49.068;8.658;2022-09-09T16:36:46;0.80;;;0.80;;
8636;SDS011;4356;49.068;8.658;2022-09-09T16:39:17;1.70;;;0.90;;
8636;SDS011;4356;49.068;8.658;2022-09-09T16:41:45;1.50;;;0.87;;
8636;SDS011;4356;49.068;8.658;2022-09-09T16:44:13;0.80;;;0.70;;
8636;SDS011;4356;49.068;8.658;2022-09-09T16:46:41;0.80;;;0.80;;
8636;SDS011;4356;49.068;8.658;2022-09-09T16:49:12;1.50;;;0.67;;
8636;SDS011;4356;49.068;8.658;2022-09-09T16:51:41;1.13;;;0.70;;
8636;SDS011;4356;49.068;8.658;2022-09-09T16:54:09;0.97;;;0.80;;
8636;SDS011;4356;49.068;8.658;2022-09-09T16:56:40;0.90;;;0.70;;
8636;SDS011;4356;49.068;8.658;2022-09-09T16:59:08;1.13;;;0.77;;
8636;SDS011;4356;49.068;8.658;2022-09-09T17:01:39;0.70;;;0.60;;
8636;SDS011;4356;49.068;8.658;2022-09-09T17:04:07;1.50;;;0.57;;
8636;SDS011;4356;49.068;8.658;2022-09-09T17:06:40;2.10;;;0.87;;
8636;SDS011;4356;49.068;8.658;2022-09-09T17:09:09;1.30;;;0.53;;
8636;SDS011;4356;49.068;8.658;2022-09-09T17:11:37;0.37;;;0.37;;
8636;SDS011;4356;49.068;8.658;2022-09-09T17:14:04;0.50;;;0.50;;
8636;SDS011;4356;49.068;8.658;2022-09-09T17:16:31;0.90;;;0.40;;
8636;SDS011;4356;49.068;8.658;2022-09-09T17:18:59;1.80;;;0.53;;
8636;SDS011;4356;49.068;8.658;2022-09-09T17:21:26;1.07;;;0.57;;
8636;SDS011;4356;49.068;8.658;2022-09-09T17:23:54;4.23;;;0.60;;
8636;SDS011;4356;49.068;8.658;2022-09-09T17:26:22;1.10;;;0.63;;
8636;SDS011;4356;49.068;8.658;2022-09-09T17:28:51;0.50;;;0.50;;
8636;SDS011;4356;49.068;8.658;2022-09-09T17:31:18;1.53;;;1.00;;
8636;SDS011;4356;49.068;8.658;2022-09-09T17:33:45;0.70;;;0.67;;
8636;SDS011;4356;49.068;8.658;2022-09-09T17:36:14;3.10;;;0.77;;
8636;SDS011;4356;49.068;8.658;2022-09-09T17:38:41;0.70;;;0.70;;
8636;SDS011;4356;49.068;8.658;2022-09-09T17:41:11;0.60;;;0.53;;
8636;SDS011;4356;49.068;8.658;2022-09-09T17:43:39;0.70;;;0.70;;
8636;SDS011;4356;49.068;8.658;2022-09-09T17:46:11;1.07;;;0.57;;
8636;SDS011;4356;49.068;8.658;2022-09-09T17:48:40;0.90;;;0.57;;
8636;SDS011;4356;49.068;8.658;2022-09-09T17:51:07;0.83;;;0.70;;
8636;SDS011;4356;49.068;8.658;2022-09-09T17:53:38;0.53;;;0.53;;